Du har inga inställningar för hoppväder.nu

Hoppväder.nu

Senast uppdaterat 01:14

UTC-tid

2019-12-06 kl. 00:14


Sol och måne

Solen går upp 8:39 och går ner 14:52 (beräknade cirkatider)
Nästa fullmåne blir om 6 dagar (2019-12-12)

METAR

ESOW (Västerås)
(24 minuter sedan)
ESOW 052350Z AUTO 21015KT 7000 DZ OVC022/// 06/03 Q0991 REDZ REUP=



ESSA (Arlanda)
(24 minuter sedan)
ESSA 052350Z 22015KT 9999 BKN028 06/02 Q0991 RWY 01L DAMP 51-100 PCT BA GOOD RWY 08 DAMP 51-100 PCT BA GOOD RWY 01R DAMP 51-100 PCT BA GOOD NOSIG=



ESKN (Skavsta)
(24 minuter sedan)
ESKN 052350Z 23011KT 9999 -RA BKN026 06/04 Q0993 RWY 26 DAMP 51-100 PCT BA GOOD=



ESOE (Örebro)
(24 minuter sedan)
ESOE 052350Z 21016KT 9999 -RA BKN015 06/04 Q0991=



ESSD (Borlänge)
(24 minuter sedan)
ESSD 052350Z AUTO 23011KT 9999 OVC015/// 06/03 Q0987=



TAF

ESOW (Västerås)
(404 minuter sedan)
ESOW 051730Z 0518/0522 22015G25KT 9999 BKN025=



ESSA (Arlanda)
(44 minuter sedan)
ESSA 052330Z 0600/0624 23015KT 9999 BKN025 TEMPO 0602/0612 3500 RA BKN008=



ESKN (Skavsta)
(44 minuter sedan)
ESKN 052330Z 0600/0624 22015KT 9999 -RA BKN025 TEMPO 0600/0606 3500 RA BKN012 TEMPO 0606/0612 3000 RA BKN008=



ESOE (Örebro)
(44 minuter sedan)
ESOE 052330Z 0600/0609 22015KT 9999 -RA BKN016 TEMPO 0600/0609 2500 RA BKN008=



ESSD (Borlänge)
ESSD





Kodnycklar till TAF och METAR






LHP

(Västerås är område G2b i Södra delen)

Prognos är inte uppdaterad




Spotting

Hur fungerar spotthjälpen och Vindkartan?

Markvind är ca 0 m/s.



Vindkartan

Senast uppdaterad 01:14




All data kommer från LFV.se